sensor_id;sensor_type;location;lat;lon;timestamp;P1;durP1;ratioP1;P2;durP2;ratioP2
30149;SDS011;16962;48.646;9.026;2023-04-15T05:53:12;7.47;;;4.43;;
30149;SDS011;16962;48.646;9.026;2023-04-15T05:57:08;9.55;;;3.97;;
30149;SDS011;16962;48.646;9.026;2023-04-15T06:00:42;15.18;;;4.53;;
30149;SDS011;16962;48.646;9.026;2023-04-15T06:04:14;10.38;;;4.45;;
30149;SDS011;16962;48.646;9.026;2023-04-15T06:07:37;10.32;;;4.72;;
30149;SDS011;16962;48.646;9.026;2023-04-15T06:10:40;9.82;;;4.82;;
30149;SDS011;16962;48.646;9.026;2023-04-15T06:13:50;11.57;;;4.35;;
30149;SDS011;16962;48.646;9.026;2023-04-15T06:23:49;8.45;;;4.60;;
30149;SDS011;16962;48.646;9.026;2023-04-15T06:27:13;9.73;;;4.72;;
30149;SDS011;16962;48.646;9.026;2023-04-15T06:30:06;12.68;;;4.97;;
30149;SDS011;16962;48.646;9.026;2023-04-15T06:33:14;14.32;;;6.43;;
30149;SDS011;16962;48.646;9.026;2023-04-15T06:36:07;9.77;;;6.18;;
30149;SDS011;16962;48.646;9.026;2023-04-15T06:39:04;12.02;;;5.88;;
30149;SDS011;16962;48.646;9.026;2023-04-15T06:42:19;18.15;;;6.00;;
30149;SDS011;16962;48.646;9.026;2023-04-15T06:45:26;12.40;;;6.35;;
30149;SDS011;16962;48.646;9.026;2023-04-15T06:48:16;10.80;;;4.63;;
30149;SDS011;16962;48.646;9.026;2023-04-15T06:51:11;12.65;;;4.63;;
30149;SDS011;16962;48.646;9.026;2023-04-15T06:54:08;11.20;;;5.15;;
30149;SDS011;16962;48.646;9.026;2023-04-15T06:57:01;9.20;;;4.55;;
30149;SDS011;16962;48.646;9.026;2023-04-15T06:59:55;7.50;;;4.22;;
30149;SDS011;16962;48.646;9.026;2023-04-15T07:02:46;9.25;;;3.92;;
30149;SDS011;16962;48.646;9.026;2023-04-15T07:05:35;8.77;;;3.90;;
30149;SDS011;16962;48.646;9.026;2023-04-15T07:08:28;7.25;;;4.00;;
30149;SDS011;16962;48.646;9.026;2023-04-15T07:11:17;6.65;;;3.95;;
30149;SDS011;16962;48.646;9.026;2023-04-15T07:14:13;19.80;;;4.43;;
30149;SDS011;16962;48.646;9.026;2023-04-15T07:17:05;6.55;;;3.85;;
30149;SDS011;16962;48.646;9.026;2023-04-15T07:19:53;10.40;;;4.22;;
30149;SDS011;16962;48.646;9.026;2023-04-15T07:22:40;8.00;;;3.70;;
30149;SDS011;16962;48.646;9.026;2023-04-15T07:25:28;10.02;;;3.60;;
30149;SDS011;16962;48.646;9.026;2023-04-15T07:28:18;7.43;;;3.22;;
30149;SDS011;16962;48.646;9.026;2023-04-15T07:31:07;10.68;;;3.30;;
30149;SDS011;16962;48.646;9.026;2023-04-15T07:33:55;8.55;;;3.10;;
30149;SDS011;16962;48.646;9.026;2023-04-15T07:36:43;8.77;;;3.20;;
30149;SDS011;16962;48.646;9.026;2023-04-15T07:39:30;10.63;;;3.88;;
30149;SDS011;16962;48.646;9.026;2023-04-15T07:42:18;9.18;;;3.63;;
30149;SDS011;16962;48.646;9.026;2023-04-15T07:45:05;10.77;;;4.03;;
30149;SDS011;16962;48.646;9.026;2023-04-15T07:47:55;12.43;;;3.95;;
30149;SDS011;16962;48.646;9.026;2023-04-15T07:50:43;9.80;;;3.67;;
30149;SDS011;16962;48.646;9.026;2023-04-15T07:53:34;9.20;;;3.22;;
30149;SDS011;16962;48.646;9.026;2023-04-15T07:56:42;6.97;;;3.08;;
30149;SDS011;16962;48.646;9.026;2023-04-15T08:06:04;10.88;;;3.38;;
30149;SDS011;16962;48.646;9.026;2023-04-15T08:09:12;6.32;;;2.10;;
30149;SDS011;16962;48.646;9.026;2023-04-15T08:12:04;8.98;;;2.25;;
30149;SDS011;16962;48.646;9.026;2023-04-15T08:15:03;7.50;;;2.25;;
30149;SDS011;16962;48.646;9.026;2023-04-15T08:18:00;6.97;;;1.83;;
30149;SDS011;16962;48.646;9.026;2023-04-15T08:20:50;6.95;;;2.67;;
30149;SDS011;16962;48.646;9.026;2023-04-15T08:23:42;7.28;;;1.98;;
30149;SDS011;16962;48.646;9.026;2023-04-15T08:26:36;6.93;;;2.08;;
30149;SDS011;16962;48.646;9.026;2023-04-15T08:29:24;5.38;;;1.85;;
30149;SDS011;16962;48.646;9.026;2023-04-15T08:32:13;8.32;;;1.73;;
30149;SDS011;16962;48.646;9.026;2023-04-15T08:39:02;5.38;;;1.52;;
30149;SDS011;16962;48.646;9.026;2023-04-15T08:52:03;5.93;;;2.05;;
30149;SDS011;16962;48.646;9.026;2023-04-15T08:54:57;4.25;;;1.70;;
30149;SDS011;16962;48.646;9.026;2023-04-15T08:58:02;6.70;;;1.63;;
30149;SDS011;16962;48.646;9.026;2023-04-15T09:00:53;4.82;;;1.77;;
30149;SDS011;16962;48.646;9.026;2023-04-15T09:03:58;5.55;;;1.77;;
30149;SDS011;16962;48.646;9.026;2023-04-15T09:07:26;4.90;;;1.60;;
30149;SDS011;16962;48.646;9.026;2023-04-15T09:10:15;5.50;;;1.70;;
30149;SDS011;16962;48.646;9.026;2023-04-15T09:13:43;3.80;;;1.60;;
30149;SDS011;16962;48.646;9.026;2023-04-15T09:36:54;5.82;;;1.20;;
30149;SDS011;16962;48.646;9.026;2023-04-15T09:39:54;5.70;;;1.52;;
30149;SDS011;16962;48.646;9.026;2023-04-15T09:42:54;4.85;;;1.30;;
30149;SDS011;16962;48.646;9.026;2023-04-15T09:45:50;4.35;;;1.48;;
30149;SDS011;16962;48.646;9.026;2023-04-15T09:52:02;4.22;;;1.75;;
30149;SDS011;16962;48.646;9.026;2023-04-15T09:55:09;3.15;;;1.20;;
30149;SDS011;16962;48.646;9.026;2023-04-15T09:57:58;2.28;;;1.42;;
30149;SDS011;16962;48.646;9.026;2023-04-15T10:01:02;5.18;;;1.90;;
30149;SDS011;16962;48.646;9.026;2023-04-15T10:08:23;3.80;;;1.33;;
30149;SDS011;16962;48.646;9.026;2023-04-15T10:12:09;3.75;;;1.17;;
30149;SDS011;16962;48.646;9.026;2023-04-15T10:30:00;3.92;;;1.60;;
30149;SDS011;16962;48.646;9.026;2023-04-15T10:32:49;2.53;;;1.35;;
30149;SDS011;16962;48.646;9.026;2023-04-15T10:35:40;2.70;;;1.23;;
30149;SDS011;16962;48.646;9.026;2023-04-15T10:45:02;2.65;;;0.90;;
30149;SDS011;16962;48.646;9.026;2023-04-15T10:48:06;3.63;;;1.25;;
30149;SDS011;16962;48.646;9.026;2023-04-15T10:51:30;4.22;;;1.30;;
30149;SDS011;16962;48.646;9.026;2023-04-15T10:58:23;3.70;;;1.10;;
30149;SDS011;16962;48.646;9.026;2023-04-15T11:09:50;4.40;;;2.00;;
30149;SDS011;16962;48.646;9.026;2023-04-15T11:12:39;5.85;;;1.90;;
30149;SDS011;16962;48.646;9.026;2023-04-15T11:15:40;3.83;;;2.00;;
30149;SDS011;16962;48.646;9.026;2023-04-15T11:18:28;6.82;;;2.33;;
30149;SDS011;16962;48.646;9.026;2023-04-15T11:21:28;4.45;;;2.20;;
30149;SDS011;16962;48.646;9.026;2023-04-15T11:24:56;6.03;;;2.30;;
30149;SDS011;16962;48.646;9.026;2023-04-15T11:31:15;3.92;;;2.20;;
30149;SDS011;16962;48.646;9.026;2023-04-15T11:34:58;4.68;;;2.42;;
30149;SDS011;16962;48.646;9.026;2023-04-15T11:37:49;4.68;;;2.20;;
30149;SDS011;16962;48.646;9.026;2023-04-15T11:40:53;3.88;;;1.95;;
30149;SDS011;16962;48.646;9.026;2023-04-15T11:43:50;7.53;;;2.40;;
30149;SDS011;16962;48.646;9.026;2023-04-15T11:46:48;5.72;;;1.85;;
30149;SDS011;16962;48.646;9.026;2023-04-15T11:49:36;8.18;;;2.17;;
30149;SDS011;16962;48.646;9.026;2023-04-15T11:52:27;9.35;;;1.90;;
30149;SDS011;16962;48.646;9.026;2023-04-15T11:55:21;9.80;;;2.20;;
30149;SDS011;16962;48.646;9.026;2023-04-15T11:58:24;5.40;;;1.75;;
30149;SDS011;16962;48.646;9.026;2023-04-15T12:01:15;5.75;;;1.98;;
30149;SDS011;16962;48.646;9.026;2023-04-15T12:05:04;6.30;;;2.05;;
30149;SDS011;16962;48.646;9.026;2023-04-15T12:08:02;7.45;;;2.42;;
30149;SDS011;16962;48.646;9.026;2023-04-15T12:10:49;6.60;;;2.15;;
30149;SDS011;16962;48.646;9.026;2023-04-15T12:13:42;5.28;;;2.13;;
30149;SDS011;16962;48.646;9.026;2023-04-15T12:16:36;10.57;;;1.98;;
30149;SDS011;16962;48.646;9.026;2023-04-15T12:19:38;4.78;;;1.95;;
30149;SDS011;16962;48.646;9.026;2023-04-15T12:22:36;6.05;;;2.50;;
30149;SDS011;16962;48.646;9.026;2023-04-15T12:25:34;5.90;;;2.55;;
30149;SDS011;16962;48.646;9.026;2023-04-15T12:28:29;7.63;;;2.60;;
30149;SDS011;16962;48.646;9.026;2023-04-15T12:31:19;4.78;;;2.30;;
30149;SDS011;16962;48.646;9.026;2023-04-15T12:34:13;6.15;;;2.28;;
30149;SDS011;16962;48.646;9.026;2023-04-15T12:37:02;8.30;;;2.60;;
30149;SDS011;16962;48.646;9.026;2023-04-15T12:39:51;5.93;;;2.38;;
30149;SDS011;16962;48.646;9.026;2023-04-15T12:42:40;6.57;;;2.53;;
30149;SDS011;16962;48.646;9.026;2023-04-15T12:45:32;7.70;;;3.03;;
30149;SDS011;16962;48.646;9.026;2023-04-15T12:48:19;6.40;;;2.92;;
30149;SDS011;16962;48.646;9.026;2023-04-15T12:51:10;7.18;;;3.28;;
30149;SDS011;16962;48.646;9.026;2023-04-15T12:53:57;5.82;;;3.00;;
30149;SDS011;16962;48.646;9.026;2023-04-15T12:56:49;7.95;;;3.30;;
30149;SDS011;16962;48.646;9.026;2023-04-15T12:59:39;8.27;;;2.75;;
30149;SDS011;16962;48.646;9.026;2023-04-15T13:05:24;9.45;;;3.10;;
30149;SDS011;16962;48.646;9.026;2023-04-15T13:08:23;5.75;;;2.80;;
30149;SDS011;16962;48.646;9.026;2023-04-15T13:11:12;5.47;;;2.80;;
30149;SDS011;16962;48.646;9.026;2023-04-15T13:14:03;6.80;;;2.70;;
30149;SDS011;16962;48.646;9.026;2023-04-15T13:17:11;7.78;;;2.33;;
30149;SDS011;16962;48.646;9.026;2023-04-15T13:20:00;6.35;;;2.72;;
30149;SDS011;16962;48.646;9.026;2023-04-15T13:22:47;6.07;;;2.90;;
30149;SDS011;16962;48.646;9.026;2023-04-15T13:25:39;5.18;;;2.70;;
30149;SDS011;16962;48.646;9.026;2023-04-15T13:28:48;7.20;;;3.33;;
30149;SDS011;16962;48.646;9.026;2023-04-15T13:31:51;5.05;;;3.65;;
30149;SDS011;16962;48.646;9.026;2023-04-15T13:34:39;7.57;;;3.20;;
30149;SDS011;16962;48.646;9.026;2023-04-15T13:37:30;4.53;;;2.50;;
30149;SDS011;16962;48.646;9.026;2023-04-15T13:40:34;6.30;;;3.13;;
30149;SDS011;16962;48.646;9.026;2023-04-15T13:43:31;4.95;;;2.80;;
30149;SDS011;16962;48.646;9.026;2023-04-15T13:46:20;5.30;;;2.75;;
30149;SDS011;16962;48.646;9.026;2023-04-15T13:49:14;9.35;;;3.25;;
30149;SDS011;16962;48.646;9.026;2023-04-15T13:52:02;4.63;;;3.10;;
30149;SDS011;16962;48.646;9.026;2023-04-15T13:54:58;6.25;;;3.40;;
30149;SDS011;16962;48.646;9.026;2023-04-15T13:58:08;8.18;;;3.70;;
30149;SDS011;16962;48.646;9.026;2023-04-15T14:01:12;6.80;;;3.55;;
30149;SDS011;16962;48.646;9.026;2023-04-15T14:04:15;7.82;;;4.00;;
30149;SDS011;16962;48.646;9.026;2023-04-15T14:07:04;6.35;;;3.30;;
30149;SDS011;16962;48.646;9.026;2023-04-15T14:09:53;4.22;;;3.00;;
30149;SDS011;16962;48.646;9.026;2023-04-15T14:12:41;9.88;;;3.05;;
30149;SDS011;16962;48.646;9.026;2023-04-15T14:18:40;6.40;;;2.97;;
30149;SDS011;16962;48.646;9.026;2023-04-15T14:21:30;5.68;;;2.80;;
30149;SDS011;16962;48.646;9.026;2023-04-15T14:24:24;7.32;;;2.53;;
30149;SDS011;16962;48.646;9.026;2023-04-15T14:27:12;3.85;;;2.40;;
30149;SDS011;16962;48.646;9.026;2023-04-15T14:30:03;4.68;;;2.28;;
30149;SDS011;16962;48.646;9.026;2023-04-15T14:33:08;3.72;;;1.27;;
30149;SDS011;16962;48.646;9.026;2023-04-15T14:35:56;5.82;;;1.45;;
30149;SDS011;16962;48.646;9.026;2023-04-15T14:38:43;2.80;;;1.10;;
30149;SDS011;16962;48.646;9.026;2023-04-15T14:41:33;2.60;;;1.20;;
30149;SDS011;16962;48.646;9.026;2023-04-15T14:44:21;3.08;;;1.30;;
30149;SDS011;16962;48.646;9.026;2023-04-15T14:47:10;2.78;;;1.30;;
30149;SDS011;16962;48.646;9.026;2023-04-15T14:50:01;2.92;;;1.63;;
30149;SDS011;16962;48.646;9.026;2023-04-15T14:52:49;3.92;;;1.92;;
30149;SDS011;16962;48.646;9.026;2023-04-15T14:55:39;2.55;;;1.75;;
30149;SDS011;16962;48.646;9.026;2023-04-15T14:58:26;4.25;;;2.35;;
30149;SDS011;16962;48.646;9.026;2023-04-15T15:01:14;5.32;;;2.60;;
30149;SDS011;16962;48.646;9.026;2023-04-15T15:04:04;3.97;;;2.00;;
30149;SDS011;16962;48.646;9.026;2023-04-15T15:06:55;3.60;;;2.33;;
30149;SDS011;16962;48.646;9.026;2023-04-15T15:09:43;5.28;;;2.20;;
30149;SDS011;16962;48.646;9.026;2023-04-15T15:12:31;4.82;;;2.28;;
30149;SDS011;16962;48.646;9.026;2023-04-15T15:15:20;5.45;;;2.25;;
30149;SDS011;16962;48.646;9.026;2023-04-15T15:18:10;5.90;;;2.38;;
30149;SDS011;16962;48.646;9.026;2023-04-15T15:20:58;2.60;;;2.30;;
30149;SDS011;16962;48.646;9.026;2023-04-15T15:23:49;4.03;;;2.47;;
30149;SDS011;16962;48.646;9.026;2023-04-15T15:26:38;7.05;;;3.45;;
30149;SDS011;16962;48.646;9.026;2023-04-15T15:29:28;6.85;;;3.47;;
30149;SDS011;16962;48.646;9.026;2023-04-15T15:32:24;4.55;;;3.25;;
30149;SDS011;16962;48.646;9.026;2023-04-15T15:35:11;9.10;;;2.70;;
30149;SDS011;16962;48.646;9.026;2023-04-15T15:38:04;4.07;;;2.65;;
30149;SDS011;16962;48.646;9.026;2023-04-15T15:40:52;5.68;;;2.92;;
30149;SDS011;16962;48.646;9.026;2023-04-15T15:43:39;5.07;;;2.80;;
30149;SDS011;16962;48.646;9.026;2023-04-15T15:46:27;7.50;;;3.05;;
30149;SDS011;16962;48.646;9.026;2023-04-15T15:49:17;5.30;;;3.30;;
30149;SDS011;16962;48.646;9.026;2023-04-15T15:52:05;3.78;;;3.30;;
30149;SDS011;16962;48.646;9.026;2023-04-15T15:54:55;4.97;;;3.00;;
30149;SDS011;16962;48.646;9.026;2023-04-15T15:57:45;3.90;;;2.88;;
30149;SDS011;16962;48.646;9.026;2023-04-15T16:00:32;6.97;;;2.90;;
30149;SDS011;16962;48.646;9.026;2023-04-15T16:03:21;6.38;;;2.80;;
30149;SDS011;16962;48.646;9.026;2023-04-15T16:06:29;4.47;;;2.50;;
30149;SDS011;16962;48.646;9.026;2023-04-15T16:12:54;4.47;;;3.10;;
30149;SDS011;16962;48.646;9.026;2023-04-15T16:15:45;4.53;;;2.45;;
30149;SDS011;16962;48.646;9.026;2023-04-15T16:18:32;4.13;;;2.08;;
30149;SDS011;16962;48.646;9.026;2023-04-15T16:21:20;3.63;;;2.25;;
30149;SDS011;16962;48.646;9.026;2023-04-15T16:24:14;3.83;;;1.90;;
30149;SDS011;16962;48.646;9.026;2023-04-15T16:27:01;4.35;;;2.00;;
30149;SDS011;16962;48.646;9.026;2023-04-15T16:29:49;3.25;;;1.88;;
30149;SDS011;16962;48.646;9.026;2023-04-15T16:32:37;2.65;;;1.92;;
30149;SDS011;16962;48.646;9.026;2023-04-15T16:35:28;2.15;;;1.65;;
30149;SDS011;16962;48.646;9.026;2023-04-15T16:38:24;3.38;;;1.88;;
30149;SDS011;16962;48.646;9.026;2023-04-15T16:41:11;2.78;;;2.15;;
30149;SDS011;16962;48.646;9.026;2023-04-15T16:43:58;3.47;;;2.50;;
30149;SDS011;16962;48.646;9.026;2023-04-15T16:46:50;3.05;;;2.28;;
30149;SDS011;16962;48.646;9.026;2023-04-15T16:49:42;4.05;;;2.42;;
30149;SDS011;16962;48.646;9.026;2023-04-15T16:52:50;6.07;;;2.67;;
30149;SDS011;16962;48.646;9.026;2023-04-15T16:55:38;4.05;;;2.50;;
30149;SDS011;16962;48.646;9.026;2023-04-15T16:58:26;4.80;;;2.90;;
30149;SDS011;16962;48.646;9.026;2023-04-15T17:01:14;4.07;;;2.47;;
30149;SDS011;16962;48.646;9.026;2023-04-15T17:04:02;4.50;;;2.38;;
30149;SDS011;16962;48.646;9.026;2023-04-15T17:06:49;3.80;;;2.80;;
30149;SDS011;16962;48.646;9.026;2023-04-15T17:09:56;3.90;;;2.63;;
30149;SDS011;16962;48.646;9.026;2023-04-15T17:12:43;2.60;;;2.30;;
30149;SDS011;16962;48.646;9.026;2023-04-15T17:15:31;3.45;;;2.70;;
30149;SDS011;16962;48.646;9.026;2023-04-15T17:18:23;9.70;;;3.30;;
30149;SDS011;16962;48.646;9.026;2023-04-15T17:21:10;3.83;;;2.65;;
30149;SDS011;16962;48.646;9.026;2023-04-15T17:23:58;4.03;;;2.92;;
30149;SDS011;16962;48.646;9.026;2023-04-15T17:26:46;4.10;;;2.95;;
30149;SDS011;16962;48.646;9.026;2023-04-15T17:29:37;5.22;;;3.28;;
30149;SDS011;16962;48.646;9.026;2023-04-15T17:32:24;3.83;;;3.50;;
30149;SDS011;16962;48.646;9.026;2023-04-15T17:38:07;4.35;;;3.38;;
30149;SDS011;16962;48.646;9.026;2023-04-15T17:40:55;5.15;;;3.38;;
30149;SDS011;16962;48.646;9.026;2023-04-15T17:44:13;8.48;;;3.90;;
30149;SDS011;16962;48.646;9.026;2023-04-15T17:47:04;4.63;;;3.33;;
30149;SDS011;16962;48.646;9.026;2023-04-15T17:49:56;6.43;;;3.47;;
30149;SDS011;16962;48.646;9.026;2023-04-15T17:52:49;3.53;;;3.22;;
30149;SDS011;16962;48.646;9.026;2023-04-15T17:55:37;5.70;;;3.95;;
30149;SDS011;16962;48.646;9.026;2023-04-15T18:06:15;6.13;;;5.00;;
30149;SDS011;16962;48.646;9.026;2023-04-15T18:09:03;6.03;;;5.43;;
30149;SDS011;16962;48.646;9.026;2023-04-15T18:12:08;6.07;;;4.60;;
30149;SDS011;16962;48.646;9.026;2023-04-15T18:19:24;7.32;;;5.72;;
30149;SDS011;16962;48.646;9.026;2023-04-15T18:22:40;6.75;;;5.90;;
30149;SDS011;16962;48.646;9.026;2023-04-15T18:37:16;7.38;;;5.93;;
30149;SDS011;16962;48.646;9.026;2023-04-15T18:40:36;7.72;;;6.13;;
30149;SDS011;16962;48.646;9.026;2023-04-15T18:43:23;8.90;;;6.30;;
30149;SDS011;16962;48.646;9.026;2023-04-15T18:46:22;8.48;;;6.75;;
30149;SDS011;16962;48.646;9.026;2023-04-15T19:00:42;11.68;;;8.00;;
30149;SDS011;16962;48.646;9.026;2023-04-15T19:07:31;10.65;;;8.55;;
30149;SDS011;16962;48.646;9.026;2023-04-15T19:14:44;12.18;;;8.75;;
30149;SDS011;16962;48.646;9.026;2023-04-15T19:21:51;13.20;;;9.73;;
30149;SDS011;16962;48.646;9.026;2023-04-15T19:28:49;13.85;;;11.27;;
30149;SDS011;16962;48.646;9.026;2023-04-15T19:35:51;19.40;;;13.13;;
30149;SDS011;16962;48.646;9.026;2023-04-15T19:41:42;21.17;;;15.52;;
30149;SDS011;16962;48.646;9.026;2023-04-15T19:44:34;19.17;;;14.38;;
30149;SDS011;16962;48.646;9.026;2023-04-15T19:51:28;23.75;;;16.08;;
30149;SDS011;16962;48.646;9.026;2023-04-15T19:54:19;23.75;;;15.57;;
30149;SDS011;16962;48.646;9.026;2023-04-15T20:12:46;24.27;;;15.52;;
30149;SDS011;16962;48.646;9.026;2023-04-15T20:15:40;23.83;;;15.38;;
30149;SDS011;16962;48.646;9.026;2023-04-15T20:18:28;25.75;;;16.48;;
30149;SDS011;16962;48.646;9.026;2023-04-15T20:21:17;22.58;;;15.57;;
30149;SDS011;16962;48.646;9.026;2023-04-15T20:32:18;22.60;;;16.23;;
30149;SDS011;16962;48.646;9.026;2023-04-15T20:35:14;23.55;;;15.25;;
30149;SDS011;16962;48.646;9.026;2023-04-15T20:38:05;22.92;;;15.48;;
30149;SDS011;16962;48.646;9.026;2023-04-15T20:45:43;23.35;;;15.50;;
30149;SDS011;16962;48.646;9.026;2023-04-15T20:52:10;26.88;;;15.80;;
30149;SDS011;16962;48.646;9.026;2023-04-15T20:55:15;25.48;;;16.77;;
30149;SDS011;16962;48.646;9.026;2023-04-15T20:58:20;28.33;;;17.85;;
30149;SDS011;16962;48.646;9.026;2023-04-15T21:05:03;27.02;;;17.20;;
30149;SDS011;16962;48.646;9.026;2023-04-15T21:07:58;30.42;;;17.42;;
30149;SDS011;16962;48.646;9.026;2023-04-15T21:10:48;28.88;;;18.23;;
30149;SDS011;16962;48.646;9.026;2023-04-15T21:26:15;33.25;;;21.23;;
30149;SDS011;16962;48.646;9.026;2023-04-15T21:29:03;28.08;;;18.67;;
30149;SDS011;16962;48.646;9.026;2023-04-15T21:32:13;31.13;;;19.70;;
30149;SDS011;16962;48.646;9.026;2023-04-15T21:35:01;33.22;;;20.38;;
30149;SDS011;16962;48.646;9.026;2023-04-15T21:38:00;31.00;;;18.80;;
30149;SDS011;16962;48.646;9.026;2023-04-15T21:41:07;35.47;;;20.25;;
30149;SDS011;16962;48.646;9.026;2023-04-15T21:44:01;29.50;;;19.15;;
30149;SDS011;16962;48.646;9.026;2023-04-15T21:47:32;29.90;;;18.95;;
30149;SDS011;16962;48.646;9.026;2023-04-15T21:50:52;33.10;;;19.77;;
30149;SDS011;16962;48.646;9.026;2023-04-15T21:53:54;32.00;;;19.17;;
30149;SDS011;16962;48.646;9.026;2023-04-15T21:57:15;31.35;;;19.80;;
30149;SDS011;16962;48.646;9.026;2023-04-15T22:00:05;32.47;;;19.55;;
30149;SDS011;16962;48.646;9.026;2023-04-15T22:02:56;34.63;;;19.95;;
30149;SDS011;16962;48.646;9.026;2023-04-15T22:09:24;34.00;;;19.85;;
30149;SDS011;16962;48.646;9.026;2023-04-15T22:12:11;30.77;;;19.17;;
30149;SDS011;16962;48.646;9.026;2023-04-15T22:15:01;34.78;;;20.35;;
30149;SDS011;16962;48.646;9.026;2023-04-15T22:17:57;32.90;;;19.83;;
30149;SDS011;16962;48.646;9.026;2023-04-15T22:20:47;35.90;;;20.27;;
30149;SDS011;16962;48.646;9.026;2023-04-15T22:23:48;37.35;;;19.77;;
30149;SDS011;16962;48.646;9.026;2023-04-15T22:26:58;34.78;;;19.92;;
30149;SDS011;16962;48.646;9.026;2023-04-15T22:29:45;37.70;;;21.40;;
30149;SDS011;16962;48.646;9.026;2023-04-15T22:32:42;34.15;;;19.77;;
30149;SDS011;16962;48.646;9.026;2023-04-15T22:35:32;37.80;;;20.90;;
30149;SDS011;16962;48.646;9.026;2023-04-15T22:38:33;35.55;;;19.10;;
30149;SDS011;16962;48.646;9.026;2023-04-15T22:41:29;35.75;;;20.48;;
30149;SDS011;16962;48.646;9.026;2023-04-15T22:44:18;39.15;;;20.85;;
30149;SDS011;16962;48.646;9.026;2023-04-15T22:47:06;41.17;;;21.05;;
30149;SDS011;16962;48.646;9.026;2023-04-15T22:50:13;35.15;;;19.17;;
30149;SDS011;16962;48.646;9.026;2023-04-15T22:53:35;36.05;;;20.30;;
30149;SDS011;16962;48.646;9.026;2023-04-15T22:56:23;34.55;;;19.65;;
30149;SDS011;16962;48.646;9.026;2023-04-15T22:59:11;31.17;;;18.23;;
30149;SDS011;16962;48.646;9.026;2023-04-15T23:02:07;32.03;;;18.02;;
30149;SDS011;16962;48.646;9.026;2023-04-15T23:04:55;35.17;;;19.27;;
30149;SDS011;16962;48.646;9.026;2023-04-15T23:07:59;37.70;;;19.20;;
30149;SDS011;16962;48.646;9.026;2023-04-15T23:11:04;32.03;;;17.65;;
30149;SDS011;16962;48.646;9.026;2023-04-15T23:13:52;39.28;;;19.38;;
30149;SDS011;16962;48.646;9.026;2023-04-15T23:16:43;39.20;;;19.17;;
30149;SDS011;16962;48.646;9.026;2023-04-15T23:19:37;33.83;;;18.00;;
30149;SDS011;16962;48.646;9.026;2023-04-15T23:22:27;34.13;;;19.02;;
30149;SDS011;16962;48.646;9.026;2023-04-15T23:25:23;35.90;;;19.02;;
30149;SDS011;16962;48.646;9.026;2023-04-15T23:28:27;35.47;;;19.17;;
30149;SDS011;16962;48.646;9.026;2023-04-15T23:31:14;34.22;;;18.98;;
30149;SDS011;16962;48.646;9.026;2023-04-15T23:34:22;36.95;;;18.52;;
30149;SDS011;16962;48.646;9.026;2023-04-15T23:37:13;38.10;;;19.13;;
30149;SDS011;16962;48.646;9.026;2023-04-15T23:40:05;35.03;;;19.15;;
30149;SDS011;16962;48.646;9.026;2023-04-15T23:42:58;35.05;;;19.15;;
30149;SDS011;16962;48.646;9.026;2023-04-15T23:45:45;35.70;;;18.83;;
30149;SDS011;16962;48.646;9.026;2023-04-15T23:48:36;40.00;;;19.67;;
30149;SDS011;16962;48.646;9.026;2023-04-15T23:51:32;39.72;;;21.17;;
30149;SDS011;16962;48.646;9.026;2023-04-15T23:54:19;33.72;;;19.05;;
30149;SDS011;16962;48.646;9.026;2023-04-15T23:57:08;39.90;;;21.83;;
